sensor_id;sensor_type;location;lat;lon;timestamp;P1;durP1;ratioP1;P2;durP2;ratioP2
21901;SDS011;11115;46.038;14.612;2023-01-30T00:01:00;2.37;;;2.13;;
21901;SDS011;11115;46.038;14.612;2023-01-30T00:03:47;0.83;;;0.77;;
21901;SDS011;11115;46.038;14.612;2023-01-30T00:06:32;4.60;;;1.97;;
21901;SDS011;11115;46.038;14.612;2023-01-30T00:09:18;2.17;;;1.20;;
21901;SDS011;11115;46.038;14.612;2023-01-30T00:12:03;2.13;;;2.00;;
21901;SDS011;11115;46.038;14.612;2023-01-30T00:14:49;3.13;;;1.83;;
21901;SDS011;11115;46.038;14.612;2023-01-30T00:17:34;1.93;;;0.97;;
21901;SDS011;11115;46.038;14.612;2023-01-30T00:20:19;1.70;;;1.40;;
21901;SDS011;11115;46.038;14.612;2023-01-30T00:23:04;4.17;;;1.27;;
21901;SDS011;11115;46.038;14.612;2023-01-30T00:25:49;6.67;;;2.20;;
21901;SDS011;11115;46.038;14.612;2023-01-30T00:28:35;9.37;;;2.70;;
21901;SDS011;11115;46.038;14.612;2023-01-30T00:31:22;4.73;;;2.80;;
21901;SDS011;11115;46.038;14.612;2023-01-30T00:34:08;3.40;;;1.67;;
21901;SDS011;11115;46.038;14.612;2023-01-30T00:36:53;9.50;;;1.87;;
21901;SDS011;11115;46.038;14.612;2023-01-30T00:39:38;3.80;;;1.77;;
21901;SDS011;11115;46.038;14.612;2023-01-30T00:42:25;2.30;;;1.90;;
21901;SDS011;11115;46.038;14.612;2023-01-30T00:45:28;3.17;;;1.33;;
21901;SDS011;11115;46.038;14.612;2023-01-30T00:48:31;5.53;;;2.93;;
21901;SDS011;11115;46.038;14.612;2023-01-30T00:51:16;9.77;;;2.27;;
21901;SDS011;11115;46.038;14.612;2023-01-30T00:54:02;5.17;;;1.87;;
21901;SDS011;11115;46.038;14.612;2023-01-30T00:56:47;3.40;;;2.13;;
21901;SDS011;11115;46.038;14.612;2023-01-30T00:59:32;1.87;;;1.60;;
21901;SDS011;11115;46.038;14.612;2023-01-30T01:02:17;3.33;;;1.57;;
21901;SDS011;11115;46.038;14.612;2023-01-30T01:05:03;1.40;;;1.00;;
21901;SDS011;11115;46.038;14.612;2023-01-30T01:07:48;1.60;;;1.50;;
21901;SDS011;11115;46.038;14.612;2023-01-30T01:10:34;5.47;;;2.23;;
21901;SDS011;11115;46.038;14.612;2023-01-30T01:13:19;9.53;;;3.03;;
21901;SDS011;11115;46.038;14.612;2023-01-30T01:16:04;8.73;;;3.03;;
21901;SDS011;11115;46.038;14.612;2023-01-30T01:18:50;3.33;;;2.83;;
21901;SDS011;11115;46.038;14.612;2023-01-30T01:21:35;3.83;;;2.70;;
21901;SDS011;11115;46.038;14.612;2023-01-30T01:24:20;4.53;;;1.90;;
21901;SDS011;11115;46.038;14.612;2023-01-30T01:27:06;4.13;;;1.53;;
21901;SDS011;11115;46.038;14.612;2023-01-30T01:29:51;2.07;;;1.47;;
21901;SDS011;11115;46.038;14.612;2023-01-30T01:32:36;6.53;;;2.17;;
21901;SDS011;11115;46.038;14.612;2023-01-30T01:35:22;2.17;;;1.97;;
21901;SDS011;11115;46.038;14.612;2023-01-30T01:38:07;4.03;;;2.00;;
21901;SDS011;11115;46.038;14.612;2023-01-30T01:40:52;12.03;;;1.77;;
21901;SDS011;11115;46.038;14.612;2023-01-30T01:47:03;8.60;;;2.60;;
21901;SDS011;11115;46.038;14.612;2023-01-30T01:49:48;5.00;;;2.87;;
21901;SDS011;11115;46.038;14.612;2023-01-30T01:52:33;3.30;;;2.10;;
21901;SDS011;11115;46.038;14.612;2023-01-30T01:55:20;6.73;;;2.17;;
21901;SDS011;11115;46.038;14.612;2023-01-30T01:58:09;3.23;;;2.60;;
21901;SDS011;11115;46.038;14.612;2023-01-30T02:00:59;7.20;;;2.22;;
21901;SDS011;11115;46.038;14.612;2023-01-30T02:03:46;6.00;;;3.00;;
21901;SDS011;11115;46.038;14.612;2023-01-30T02:06:34;3.20;;;2.53;;
21901;SDS011;11115;46.038;14.612;2023-01-30T02:09:23;5.20;;;1.90;;
21901;SDS011;11115;46.038;14.612;2023-01-30T02:12:09;2.87;;;1.67;;
21901;SDS011;11115;46.038;14.612;2023-01-30T02:14:56;3.57;;;2.30;;
21901;SDS011;11115;46.038;14.612;2023-01-30T02:17:44;4.73;;;2.30;;
21901;SDS011;11115;46.038;14.612;2023-01-30T02:23:37;2.57;;;2.27;;
21901;SDS011;11115;46.038;14.612;2023-01-30T02:39:03;3.93;;;2.33;;
21901;SDS011;11115;46.038;14.612;2023-01-30T02:45:24;3.47;;;2.20;;
21901;SDS011;11115;46.038;14.612;2023-01-30T02:48:45;4.60;;;2.97;;
21901;SDS011;11115;46.038;14.612;2023-01-30T02:51:37;2.70;;;2.10;;
21901;SDS011;11115;46.038;14.612;2023-01-30T02:54:24;5.90;;;2.87;;
21901;SDS011;11115;46.038;14.612;2023-01-30T02:57:17;5.93;;;2.93;;
21901;SDS011;11115;46.038;14.612;2023-01-30T03:00:05;7.43;;;3.30;;
21901;SDS011;11115;46.038;14.612;2023-01-30T03:12:48;3.27;;;1.50;;
21901;SDS011;11115;46.038;14.612;2023-01-30T03:18:24;6.50;;;2.43;;
21901;SDS011;11115;46.038;14.612;2023-01-30T03:21:13;2.63;;;2.43;;
21901;SDS011;11115;46.038;14.612;2023-01-30T03:23:59;2.43;;;1.90;;
21901;SDS011;11115;46.038;14.612;2023-01-30T03:26:46;3.37;;;2.60;;
21901;SDS011;11115;46.038;14.612;2023-01-30T03:29:52;3.80;;;1.30;;
21901;SDS011;11115;46.038;14.612;2023-01-30T03:32:37;1.57;;;1.30;;
21901;SDS011;11115;46.038;14.612;2023-01-30T03:35:23;4.23;;;2.23;;
21901;SDS011;11115;46.038;14.612;2023-01-30T03:38:11;5.57;;;2.40;;
21901;SDS011;11115;46.038;14.612;2023-01-30T03:40:57;3.50;;;2.53;;
21901;SDS011;11115;46.038;14.612;2023-01-30T03:43:42;7.53;;;2.13;;
21901;SDS011;11115;46.038;14.612;2023-01-30T03:46:30;7.97;;;3.53;;
21901;SDS011;11115;46.038;14.612;2023-01-30T03:49:16;5.43;;;2.47;;
21901;SDS011;11115;46.038;14.612;2023-01-30T03:52:02;5.17;;;2.47;;
21901;SDS011;11115;46.038;14.612;2023-01-30T03:54:47;5.53;;;3.23;;
21901;SDS011;11115;46.038;14.612;2023-01-30T03:57:33;4.97;;;2.83;;
21901;SDS011;11115;46.038;14.612;2023-01-30T04:00:18;5.27;;;4.13;;
21901;SDS011;11115;46.038;14.612;2023-01-30T04:03:04;6.80;;;2.83;;
21901;SDS011;11115;46.038;14.612;2023-01-30T04:05:53;2.40;;;2.17;;
21901;SDS011;11115;46.038;14.612;2023-01-30T04:08:39;2.67;;;2.30;;
21901;SDS011;11115;46.038;14.612;2023-01-30T04:11:36;3.33;;;1.27;;
21901;SDS011;11115;46.038;14.612;2023-01-30T04:14:21;7.77;;;3.37;;
21901;SDS011;11115;46.038;14.612;2023-01-30T04:17:36;4.67;;;3.07;;
21901;SDS011;11115;46.038;14.612;2023-01-30T04:20:33;8.20;;;2.33;;
21901;SDS011;11115;46.038;14.612;2023-01-30T04:23:26;13.83;;;3.20;;
21901;SDS011;11115;46.038;14.612;2023-01-30T04:26:12;5.50;;;3.67;;
21901;SDS011;11115;46.038;14.612;2023-01-30T04:28:57;6.07;;;2.83;;
21901;SDS011;11115;46.038;14.612;2023-01-30T04:31:45;2.50;;;2.33;;
21901;SDS011;11115;46.038;14.612;2023-01-30T04:34:33;3.77;;;2.63;;
21901;SDS011;11115;46.038;14.612;2023-01-30T04:37:18;8.80;;;4.10;;
21901;SDS011;11115;46.038;14.612;2023-01-30T04:40:04;6.07;;;4.10;;
21901;SDS011;11115;46.038;14.612;2023-01-30T04:42:50;8.87;;;4.17;;
21901;SDS011;11115;46.038;14.612;2023-01-30T04:45:58;4.60;;;3.37;;
21901;SDS011;11115;46.038;14.612;2023-01-30T04:48:43;15.37;;;5.10;;
21901;SDS011;11115;46.038;14.612;2023-01-30T04:51:29;13.73;;;7.27;;
21901;SDS011;11115;46.038;14.612;2023-01-30T04:54:14;6.63;;;3.43;;
21901;SDS011;11115;46.038;14.612;2023-01-30T04:57:00;14.13;;;3.50;;
21901;SDS011;11115;46.038;14.612;2023-01-30T04:59:45;5.70;;;4.17;;
21901;SDS011;11115;46.038;14.612;2023-01-30T05:02:32;5.70;;;2.73;;
21901;SDS011;11115;46.038;14.612;2023-01-30T05:05:17;6.43;;;3.80;;
21901;SDS011;11115;46.038;14.612;2023-01-30T05:08:07;12.43;;;2.03;;
21901;SDS011;11115;46.038;14.612;2023-01-30T05:10:53;2.37;;;1.73;;
21901;SDS011;11115;46.038;14.612;2023-01-30T05:13:38;2.80;;;1.53;;
21901;SDS011;11115;46.038;14.612;2023-01-30T05:16:23;6.60;;;2.60;;
21901;SDS011;11115;46.038;14.612;2023-01-30T05:19:10;4.77;;;2.47;;
21901;SDS011;11115;46.038;14.612;2023-01-30T05:21:56;2.00;;;1.67;;
21901;SDS011;11115;46.038;14.612;2023-01-30T05:24:41;10.50;;;3.13;;
21901;SDS011;11115;46.038;14.612;2023-01-30T05:27:26;9.60;;;3.07;;
21901;SDS011;11115;46.038;14.612;2023-01-30T05:30:11;3.27;;;1.53;;
21901;SDS011;11115;46.038;14.612;2023-01-30T05:32:57;1.20;;;1.13;;
21901;SDS011;11115;46.038;14.612;2023-01-30T05:35:48;20.10;;;8.60;;
21901;SDS011;11115;46.038;14.612;2023-01-30T05:38:34;3.78;;;2.28;;
21901;SDS011;11115;46.038;14.612;2023-01-30T05:41:19;7.10;;;3.10;;
21901;SDS011;11115;46.038;14.612;2023-01-30T05:44:05;2.03;;;1.93;;
21901;SDS011;11115;46.038;14.612;2023-01-30T05:46:50;5.53;;;3.57;;
21901;SDS011;11115;46.038;14.612;2023-01-30T05:49:36;7.93;;;3.83;;
21901;SDS011;11115;46.038;14.612;2023-01-30T05:52:21;13.40;;;2.70;;
21901;SDS011;11115;46.038;14.612;2023-01-30T05:55:06;6.63;;;2.40;;
21901;SDS011;11115;46.038;14.612;2023-01-30T05:57:52;2.10;;;2.00;;
21901;SDS011;11115;46.038;14.612;2023-01-30T06:00:37;4.77;;;2.07;;
21901;SDS011;11115;46.038;14.612;2023-01-30T06:03:23;5.93;;;3.27;;
21901;SDS011;11115;46.038;14.612;2023-01-30T06:06:09;9.70;;;4.10;;
21901;SDS011;11115;46.038;14.612;2023-01-30T06:08:56;8.90;;;3.60;;
21901;SDS011;11115;46.038;14.612;2023-01-30T06:11:41;14.23;;;5.07;;
21901;SDS011;11115;46.038;14.612;2023-01-30T06:14:26;7.23;;;5.70;;
21901;SDS011;11115;46.038;14.612;2023-01-30T06:17:11;15.80;;;7.40;;
21901;SDS011;11115;46.038;14.612;2023-01-30T06:19:56;3.77;;;2.57;;
21901;SDS011;11115;46.038;14.612;2023-01-30T06:22:41;21.47;;;7.20;;
21901;SDS011;11115;46.038;14.612;2023-01-30T06:25:27;13.00;;;4.87;;
21901;SDS011;11115;46.038;14.612;2023-01-30T06:28:12;14.20;;;4.00;;
21901;SDS011;11115;46.038;14.612;2023-01-30T06:30:59;1.40;;;0.97;;
21901;SDS011;11115;46.038;14.612;2023-01-30T06:33:44;10.53;;;3.63;;
21901;SDS011;11115;46.038;14.612;2023-01-30T06:36:29;5.60;;;2.43;;
21901;SDS011;11115;46.038;14.612;2023-01-30T06:39:14;0.93;;;0.87;;
21901;SDS011;11115;46.038;14.612;2023-01-30T06:42:00;5.83;;;3.53;;
21901;SDS011;11115;46.038;14.612;2023-01-30T06:44:45;4.10;;;2.47;;
21901;SDS011;11115;46.038;14.612;2023-01-30T06:47:30;6.00;;;3.23;;
21901;SDS011;11115;46.038;14.612;2023-01-30T06:50:16;13.30;;;3.47;;
21901;SDS011;11115;46.038;14.612;2023-01-30T06:53:03;4.43;;;2.17;;
21901;SDS011;11115;46.038;14.612;2023-01-30T06:55:50;9.77;;;4.50;;
21901;SDS011;11115;46.038;14.612;2023-01-30T06:58:35;19.23;;;4.47;;
21901;SDS011;11115;46.038;14.612;2023-01-30T07:01:20;9.13;;;4.07;;
21901;SDS011;11115;46.038;14.612;2023-01-30T07:04:06;3.90;;;2.30;;
21901;SDS011;11115;46.038;14.612;2023-01-30T07:06:51;3.90;;;1.80;;
21901;SDS011;11115;46.038;14.612;2023-01-30T07:09:36;2.03;;;1.83;;
21901;SDS011;11115;46.038;14.612;2023-01-30T07:12:21;4.20;;;2.00;;
21901;SDS011;11115;46.038;14.612;2023-01-30T07:15:07;5.50;;;2.17;;
21901;SDS011;11115;46.038;14.612;2023-01-30T07:17:53;3.80;;;2.63;;
21901;SDS011;11115;46.038;14.612;2023-01-30T07:20:38;4.40;;;2.03;;
21901;SDS011;11115;46.038;14.612;2023-01-30T07:23:24;3.03;;;2.50;;
21901;SDS011;11115;46.038;14.612;2023-01-30T07:26:10;5.77;;;1.43;;
21901;SDS011;11115;46.038;14.612;2023-01-30T07:28:54;1.73;;;0.97;;
21901;SDS011;11115;46.038;14.612;2023-01-30T07:31:40;3.30;;;1.40;;
21901;SDS011;11115;46.038;14.612;2023-01-30T07:34:25;4.33;;;1.90;;
21901;SDS011;11115;46.038;14.612;2023-01-30T07:37:10;1.60;;;1.50;;
21901;SDS011;11115;46.038;14.612;2023-01-30T07:39:55;1.70;;;1.40;;
21901;SDS011;11115;46.038;14.612;2023-01-30T07:42:41;5.70;;;2.27;;
21901;SDS011;11115;46.038;14.612;2023-01-30T07:45:27;3.67;;;1.97;;
21901;SDS011;11115;46.038;14.612;2023-01-30T07:48:16;3.30;;;2.77;;
21901;SDS011;11115;46.038;14.612;2023-01-30T07:51:02;2.77;;;2.40;;
21901;SDS011;11115;46.038;14.612;2023-01-30T07:53:48;5.27;;;1.83;;
21901;SDS011;11115;46.038;14.612;2023-01-30T07:56:34;3.97;;;2.27;;
21901;SDS011;11115;46.038;14.612;2023-01-30T07:59:19;2.33;;;1.77;;
21901;SDS011;11115;46.038;14.612;2023-01-30T08:02:04;0.60;;;0.60;;
21901;SDS011;11115;46.038;14.612;2023-01-30T08:04:50;4.93;;;2.50;;
21901;SDS011;11115;46.038;14.612;2023-01-30T08:07:35;7.00;;;1.60;;
21901;SDS011;11115;46.038;14.612;2023-01-30T08:10:20;2.10;;;1.63;;
21901;SDS011;11115;46.038;14.612;2023-01-30T08:13:05;1.63;;;1.53;;
21901;SDS011;11115;46.038;14.612;2023-01-30T08:15:51;1.93;;;1.20;;
21901;SDS011;11115;46.038;14.612;2023-01-30T08:18:36;4.17;;;2.43;;
21901;SDS011;11115;46.038;14.612;2023-01-30T08:21:21;3.53;;;2.10;;
21901;SDS011;11115;46.038;14.612;2023-01-30T08:24:06;3.37;;;1.57;;
21901;SDS011;11115;46.038;14.612;2023-01-30T08:26:52;5.13;;;2.40;;
21901;SDS011;11115;46.038;14.612;2023-01-30T08:29:37;4.07;;;1.90;;
21901;SDS011;11115;46.038;14.612;2023-01-30T08:32:22;2.87;;;2.23;;
21901;SDS011;11115;46.038;14.612;2023-01-30T08:35:08;7.07;;;3.27;;
21901;SDS011;11115;46.038;14.612;2023-01-30T08:37:54;5.13;;;2.53;;
21901;SDS011;11115;46.038;14.612;2023-01-30T08:40:39;4.60;;;1.43;;
21901;SDS011;11115;46.038;14.612;2023-01-30T08:43:24;9.43;;;2.63;;
21901;SDS011;11115;46.038;14.612;2023-01-30T08:46:09;3.13;;;1.57;;
21901;SDS011;11115;46.038;14.612;2023-01-30T08:48:55;9.23;;;3.33;;
21901;SDS011;11115;46.038;14.612;2023-01-30T08:51:40;11.43;;;2.43;;
21901;SDS011;11115;46.038;14.612;2023-01-30T08:54:25;4.40;;;2.23;;
21901;SDS011;11115;46.038;14.612;2023-01-30T08:57:12;2.47;;;1.40;;
21901;SDS011;11115;46.038;14.612;2023-01-30T08:59:58;3.90;;;3.10;;
21901;SDS011;11115;46.038;14.612;2023-01-30T09:02:43;2.57;;;1.67;;
21901;SDS011;11115;46.038;14.612;2023-01-30T09:05:28;6.73;;;2.90;;
21901;SDS011;11115;46.038;14.612;2023-01-30T09:08:13;4.63;;;2.20;;
21901;SDS011;11115;46.038;14.612;2023-01-30T09:10:59;2.30;;;2.00;;
21901;SDS011;11115;46.038;14.612;2023-01-30T09:13:46;8.27;;;3.07;;
21901;SDS011;11115;46.038;14.612;2023-01-30T09:16:31;7.80;;;2.60;;
21901;SDS011;11115;46.038;14.612;2023-01-30T09:19:16;2.93;;;2.60;;
21901;SDS011;11115;46.038;14.612;2023-01-30T09:22:01;7.60;;;3.50;;
21901;SDS011;11115;46.038;14.612;2023-01-30T09:24:47;7.47;;;3.67;;
21901;SDS011;11115;46.038;14.612;2023-01-30T09:27:32;3.87;;;2.17;;
21901;SDS011;11115;46.038;14.612;2023-01-30T09:30:18;5.73;;;2.63;;
21901;SDS011;11115;46.038;14.612;2023-01-30T09:33:04;5.40;;;1.80;;
21901;SDS011;11115;46.038;14.612;2023-01-30T09:35:49;3.60;;;3.10;;
21901;SDS011;11115;46.038;14.612;2023-01-30T09:38:35;1.07;;;1.07;;
21901;SDS011;11115;46.038;14.612;2023-01-30T09:44:42;3.20;;;2.17;;
21901;SDS011;11115;46.038;14.612;2023-01-30T09:50:45;7.33;;;3.53;;
21901;SDS011;11115;46.038;14.612;2023-01-30T10:05:59;5.33;;;2.57;;
21901;SDS011;11115;46.038;14.612;2023-01-30T10:11:41;2.43;;;1.80;;
21901;SDS011;11115;46.038;14.612;2023-01-30T10:18:13;4.63;;;2.30;;
21901;SDS011;11115;46.038;14.612;2023-01-30T10:21:07;8.53;;;3.47;;
21901;SDS011;11115;46.038;14.612;2023-01-30T10:24:17;6.27;;;2.60;;
21901;SDS011;11115;46.038;14.612;2023-01-30T10:27:12;2.43;;;2.20;;
21901;SDS011;11115;46.038;14.612;2023-01-30T10:30:01;8.50;;;2.97;;
21901;SDS011;11115;46.038;14.612;2023-01-30T10:32:52;7.97;;;2.77;;
21901;SDS011;11115;46.038;14.612;2023-01-30T10:35:43;4.90;;;2.37;;
21901;SDS011;11115;46.038;14.612;2023-01-30T10:38:31;1.67;;;1.47;;
21901;SDS011;11115;46.038;14.612;2023-01-30T10:41:29;2.63;;;2.37;;
21901;SDS011;11115;46.038;14.612;2023-01-30T10:44:19;7.23;;;3.47;;
21901;SDS011;11115;46.038;14.612;2023-01-30T10:50:32;12.40;;;3.00;;
21901;SDS011;11115;46.038;14.612;2023-01-30T10:53:32;4.43;;;2.97;;
21901;SDS011;11115;46.038;14.612;2023-01-30T10:56:26;4.17;;;2.63;;
21901;SDS011;11115;46.038;14.612;2023-01-30T10:59:22;14.33;;;3.93;;
21901;SDS011;11115;46.038;14.612;2023-01-30T11:02:24;4.73;;;3.03;;
21901;SDS011;11115;46.038;14.612;2023-01-30T11:05:23;6.93;;;1.63;;
21901;SDS011;11115;46.038;14.612;2023-01-30T11:08:14;4.43;;;2.75;;
21901;SDS011;11115;46.038;14.612;2023-01-30T11:11:23;9.20;;;3.93;;
21901;SDS011;11115;46.038;14.612;2023-01-30T11:14:11;8.03;;;3.23;;
21901;SDS011;11115;46.038;14.612;2023-01-30T11:16:57;11.07;;;3.53;;
21901;SDS011;11115;46.038;14.612;2023-01-30T11:19:52;5.70;;;2.43;;
21901;SDS011;11115;46.038;14.612;2023-01-30T11:22:49;9.30;;;3.40;;
21901;SDS011;11115;46.038;14.612;2023-01-30T11:25:50;5.93;;;3.03;;
21901;SDS011;11115;46.038;14.612;2023-01-30T11:28:39;7.77;;;4.30;;
21901;SDS011;11115;46.038;14.612;2023-01-30T11:31:27;6.00;;;2.73;;
21901;SDS011;11115;46.038;14.612;2023-01-30T11:34:14;6.37;;;3.13;;
21901;SDS011;11115;46.038;14.612;2023-01-30T11:43:04;6.75;;;4.60;;
21901;SDS011;11115;46.038;14.612;2023-01-30T11:45:54;7.68;;;3.30;;
21901;SDS011;11115;46.038;14.612;2023-01-30T11:48:53;6.17;;;3.73;;
21901;SDS011;11115;46.038;14.612;2023-01-30T11:51:44;6.13;;;3.57;;
21901;SDS011;11115;46.038;14.612;2023-01-30T11:54:32;5.80;;;3.40;;
21901;SDS011;11115;46.038;14.612;2023-01-30T11:57:21;11.27;;;3.33;;
21901;SDS011;11115;46.038;14.612;2023-01-30T12:00:11;10.63;;;2.47;;
21901;SDS011;11115;46.038;14.612;2023-01-30T12:03:03;10.53;;;5.00;;
21901;SDS011;11115;46.038;14.612;2023-01-30T12:05:50;6.53;;;3.03;;
21901;SDS011;11115;46.038;14.612;2023-01-30T12:08:36;11.23;;;4.53;;
21901;SDS011;11115;46.038;14.612;2023-01-30T12:14:43;10.17;;;3.77;;
21901;SDS011;11115;46.038;14.612;2023-01-30T12:17:48;9.50;;;4.27;;
21901;SDS011;11115;46.038;14.612;2023-01-30T12:20:54;8.90;;;4.33;;
21901;SDS011;11115;46.038;14.612;2023-01-30T12:23:44;15.93;;;3.50;;
21901;SDS011;11115;46.038;14.612;2023-01-30T12:26:45;9.50;;;4.67;;
21901;SDS011;11115;46.038;14.612;2023-01-30T12:29:36;19.27;;;5.23;;
21901;SDS011;11115;46.038;14.612;2023-01-30T12:32:32;7.67;;;4.57;;
21901;SDS011;11115;46.038;14.612;2023-01-30T12:35:18;8.27;;;4.23;;
21901;SDS011;11115;46.038;14.612;2023-01-30T12:57:25;9.33;;;3.17;;
21901;SDS011;11115;46.038;14.612;2023-01-30T13:03:28;9.07;;;3.87;;
21901;SDS011;11115;46.038;14.612;2023-01-30T13:12:41;14.70;;;3.47;;
21901;SDS011;11115;46.038;14.612;2023-01-30T13:18:25;8.23;;;4.20;;
21901;SDS011;11115;46.038;14.612;2023-01-30T13:27:27;8.93;;;3.93;;
21901;SDS011;11115;46.038;14.612;2023-01-30T13:30:17;12.53;;;4.37;;
21901;SDS011;11115;46.038;14.612;2023-01-30T13:33:05;13.13;;;4.33;;
21901;SDS011;11115;46.038;14.612;2023-01-30T13:36:01;9.13;;;3.43;;
21901;SDS011;11115;46.038;14.612;2023-01-30T13:41:54;5.80;;;3.20;;
21901;SDS011;11115;46.038;14.612;2023-01-30T13:44:41;14.07;;;5.07;;
21901;SDS011;11115;46.038;14.612;2023-01-30T13:51:10;11.07;;;4.27;;
21901;SDS011;11115;46.038;14.612;2023-01-30T14:00:25;5.93;;;3.40;;
21901;SDS011;11115;46.038;14.612;2023-01-30T14:11:29;11.13;;;4.57;;
21901;SDS011;11115;46.038;14.612;2023-01-30T14:17:10;7.33;;;3.93;;
21901;SDS011;11115;46.038;14.612;2023-01-30T14:19:58;8.13;;;4.17;;
21901;SDS011;11115;46.038;14.612;2023-01-30T14:22:53;20.50;;;6.20;;
21901;SDS011;11115;46.038;14.612;2023-01-30T14:25:44;15.93;;;6.43;;
21901;SDS011;11115;46.038;14.612;2023-01-30T14:34:44;7.83;;;4.33;;
21901;SDS011;11115;46.038;14.612;2023-01-30T14:45:58;24.27;;;10.47;;
21901;SDS011;11115;46.038;14.612;2023-01-30T14:48:53;14.35;;;7.07;;
21901;SDS011;11115;46.038;14.612;2023-01-30T14:51:57;13.20;;;5.93;;
21901;SDS011;11115;46.038;14.612;2023-01-30T14:54:43;40.40;;;12.47;;
21901;SDS011;11115;46.038;14.612;2023-01-30T14:57:34;24.98;;;8.43;;
21901;SDS011;11115;46.038;14.612;2023-01-30T15:00:21;65.10;;;22.87;;
21901;SDS011;11115;46.038;14.612;2023-01-30T15:03:17;24.03;;;8.63;;
21901;SDS011;11115;46.038;14.612;2023-01-30T15:06:04;22.67;;;8.03;;
21901;SDS011;11115;46.038;14.612;2023-01-30T15:08:50;14.63;;;6.97;;
21901;SDS011;11115;46.038;14.612;2023-01-30T15:11:36;9.87;;;4.53;;
21901;SDS011;11115;46.038;14.612;2023-01-30T15:14:27;10.80;;;4.23;;
21901;SDS011;11115;46.038;14.612;2023-01-30T15:17:24;24.67;;;11.63;;
21901;SDS011;11115;46.038;14.612;2023-01-30T15:20:24;21.13;;;7.20;;
21901;SDS011;11115;46.038;14.612;2023-01-30T15:26:24;9.93;;;3.37;;
21901;SDS011;11115;46.038;14.612;2023-01-30T15:29:35;81.67;;;28.30;;
21901;SDS011;11115;46.038;14.612;2023-01-30T15:32:35;21.93;;;10.13;;
21901;SDS011;11115;46.038;14.612;2023-01-30T15:35:22;24.60;;;9.87;;
21901;SDS011;11115;46.038;14.612;2023-01-30T15:41:10;12.20;;;7.13;;
21901;SDS011;11115;46.038;14.612;2023-01-30T15:50:08;22.53;;;8.37;;
21901;SDS011;11115;46.038;14.612;2023-01-30T15:52:54;10.50;;;5.77;;
21901;SDS011;11115;46.038;14.612;2023-01-30T15:55:41;10.60;;;5.40;;
21901;SDS011;11115;46.038;14.612;2023-01-30T15:58:27;5.97;;;3.43;;
21901;SDS011;11115;46.038;14.612;2023-01-30T16:01:17;7.40;;;2.73;;
21901;SDS011;11115;46.038;14.612;2023-01-30T16:04:04;8.00;;;2.57;;
21901;SDS011;11115;46.038;14.612;2023-01-30T16:06:50;8.53;;;4.67;;
21901;SDS011;11115;46.038;14.612;2023-01-30T16:09:35;9.60;;;3.73;;
21901;SDS011;11115;46.038;14.612;2023-01-30T16:12:24;10.10;;;4.53;;
21901;SDS011;11115;46.038;14.612;2023-01-30T16:15:24;17.73;;;3.97;;
21901;SDS011;11115;46.038;14.612;2023-01-30T16:21:23;9.00;;;4.40;;
21901;SDS011;11115;46.038;14.612;2023-01-30T16:24:19;18.10;;;8.30;;
21901;SDS011;11115;46.038;14.612;2023-01-30T16:27:07;22.10;;;7.70;;
21901;SDS011;11115;46.038;14.612;2023-01-30T16:30:17;19.53;;;6.57;;
21901;SDS011;11115;46.038;14.612;2023-01-30T16:33:07;11.57;;;5.43;;
21901;SDS011;11115;46.038;14.612;2023-01-30T16:35:54;8.33;;;5.63;;
21901;SDS011;11115;46.038;14.612;2023-01-30T16:38:43;15.37;;;9.33;;
21901;SDS011;11115;46.038;14.612;2023-01-30T16:44:29;14.20;;;6.07;;
21901;SDS011;11115;46.038;14.612;2023-01-30T16:50:16;19.40;;;8.77;;
21901;SDS011;11115;46.038;14.612;2023-01-30T16:53:04;31.93;;;8.97;;
21901;SDS011;11115;46.038;14.612;2023-01-30T16:56:02;35.50;;;9.73;;
21901;SDS011;11115;46.038;14.612;2023-01-30T16:58:53;32.87;;;11.03;;
21901;SDS011;11115;46.038;14.612;2023-01-30T17:01:41;22.37;;;10.30;;
21901;SDS011;11115;46.038;14.612;2023-01-30T17:04:28;26.87;;;8.17;;
21901;SDS011;11115;46.038;14.612;2023-01-30T17:07:33;22.93;;;10.17;;
21901;SDS011;11115;46.038;14.612;2023-01-30T17:19:05;20.70;;;7.83;;
21901;SDS011;11115;46.038;14.612;2023-01-30T17:21:51;11.73;;;7.17;;
21901;SDS011;11115;46.038;14.612;2023-01-30T17:24:37;21.03;;;8.60;;
21901;SDS011;11115;46.038;14.612;2023-01-30T17:27:22;17.13;;;8.97;;
21901;SDS011;11115;46.038;14.612;2023-01-30T17:30:15;22.53;;;8.20;;
21901;SDS011;11115;46.038;14.612;2023-01-30T17:33:02;22.03;;;10.33;;
21901;SDS011;11115;46.038;14.612;2023-01-30T17:35:47;27.73;;;9.97;;
21901;SDS011;11115;46.038;14.612;2023-01-30T17:38:32;19.93;;;7.77;;
21901;SDS011;11115;46.038;14.612;2023-01-30T17:41:18;21.10;;;6.57;;
21901;SDS011;11115;46.038;14.612;2023-01-30T17:44:05;25.17;;;9.17;;
21901;SDS011;11115;46.038;14.612;2023-01-30T17:46:51;21.47;;;10.67;;
21901;SDS011;11115;46.038;14.612;2023-01-30T17:49:36;16.03;;;7.13;;
21901;SDS011;11115;46.038;14.612;2023-01-30T17:52:21;24.93;;;7.37;;
21901;SDS011;11115;46.038;14.612;2023-01-30T17:55:08;16.50;;;7.77;;
21901;SDS011;11115;46.038;14.612;2023-01-30T17:57:56;10.57;;;6.60;;
21901;SDS011;11115;46.038;14.612;2023-01-30T18:00:41;32.60;;;7.70;;
21901;SDS011;11115;46.038;14.612;2023-01-30T18:03:27;13.00;;;5.70;;
21901;SDS011;11115;46.038;14.612;2023-01-30T18:06:12;11.07;;;4.10;;
21901;SDS011;11115;46.038;14.612;2023-01-30T18:08:59;18.67;;;8.87;;
21901;SDS011;11115;46.038;14.612;2023-01-30T18:11:44;19.33;;;8.17;;
21901;SDS011;11115;46.038;14.612;2023-01-30T18:14:30;11.50;;;6.87;;
21901;SDS011;11115;46.038;14.612;2023-01-30T18:17:15;17.37;;;6.40;;
21901;SDS011;11115;46.038;14.612;2023-01-30T18:20:01;13.43;;;7.20;;
21901;SDS011;11115;46.038;14.612;2023-01-30T18:22:47;24.67;;;7.03;;
21901;SDS011;11115;46.038;14.612;2023-01-30T18:25:32;17.33;;;7.43;;
21901;SDS011;11115;46.038;14.612;2023-01-30T18:28:17;13.07;;;6.33;;
21901;SDS011;11115;46.038;14.612;2023-01-30T18:31:03;13.30;;;8.10;;
21901;SDS011;11115;46.038;14.612;2023-01-30T18:33:49;13.97;;;6.73;;
21901;SDS011;11115;46.038;14.612;2023-01-30T18:36:36;6.10;;;4.93;;
21901;SDS011;11115;46.038;14.612;2023-01-30T18:39:21;6.53;;;3.93;;
21901;SDS011;11115;46.038;14.612;2023-01-30T18:42:07;6.50;;;5.03;;
21901;SDS011;11115;46.038;14.612;2023-01-30T18:44:52;16.17;;;5.73;;
21901;SDS011;11115;46.038;14.612;2023-01-30T18:47:38;9.27;;;5.40;;
21901;SDS011;11115;46.038;14.612;2023-01-30T18:50:23;15.47;;;6.50;;
21901;SDS011;11115;46.038;14.612;2023-01-30T18:53:08;12.87;;;6.40;;
21901;SDS011;11115;46.038;14.612;2023-01-30T18:55:53;26.30;;;7.93;;
21901;SDS011;11115;46.038;14.612;2023-01-30T18:58:39;26.63;;;9.63;;
21901;SDS011;11115;46.038;14.612;2023-01-30T19:01:25;19.57;;;7.43;;
21901;SDS011;11115;46.038;14.612;2023-01-30T19:04:11;14.57;;;6.30;;
21901;SDS011;11115;46.038;14.612;2023-01-30T19:06:56;11.80;;;6.93;;
21901;SDS011;11115;46.038;14.612;2023-01-30T19:09:41;16.60;;;8.03;;
21901;SDS011;11115;46.038;14.612;2023-01-30T19:12:26;19.87;;;8.23;;
21901;SDS011;11115;46.038;14.612;2023-01-30T19:15:29;13.47;;;5.57;;
21901;SDS011;11115;46.038;14.612;2023-01-30T19:18:14;12.13;;;4.67;;
21901;SDS011;11115;46.038;14.612;2023-01-30T19:21:00;7.93;;;3.60;;
21901;SDS011;11115;46.038;14.612;2023-01-30T19:23:46;15.50;;;5.03;;
21901;SDS011;11115;46.038;14.612;2023-01-30T19:26:32;10.83;;;4.37;;
21901;SDS011;11115;46.038;14.612;2023-01-30T19:29:18;4.23;;;3.07;;
21901;SDS011;11115;46.038;14.612;2023-01-30T19:32:03;15.40;;;6.93;;
21901;SDS011;11115;46.038;14.612;2023-01-30T19:34:49;26.10;;;11.37;;